Time;durP1;ratioP1;P1;durP2;ratioP2;P2;SDS_P1;SDS_P2;PMS_P1;PMS_P2;Temp;Humidity;BMP_temperature;BMP_pressure;BME280_temperature;BME280_humidity;BME280_pressure;Samples;Min_cycle;Max_cycle;Signal;HPM_P1;HPM_P2
2022/01/25 11:20:04;;;;;;;101.32;38.28;;;3.90;99.90;;;;;;5091619;27;20397;-62
2022/01/25 11:22:30;;;;;;;104.32;41.58;;;4.00;99.90;;;;;;5091088;28;20139;-62
2022/01/25 11:25:01;;;;;;;99.80;40.65;;;3.90;99.90;;;;;;5090843;28;20087;-62
2022/01/25 11:27:29;;;;;;;98.00;42.15;;;4.00;99.90;;;;;;5091170;28;20048;-62
2022/01/25 11:30:04;;;;;;;94.47;41.50;;;3.90;99.90;;;;;;5090953;28;20101;-62
2022/01/25 11:32:33;;;;;;;96.97;41.22;;;4.00;99.90;;;;;;5091904;28;20127;-62
2022/01/25 11:35:00;;;;;;;92.78;40.38;;;4.00;99.90;;;;;;5090970;28;20044;-62
2022/01/25 11:37:46;;;;;;;82.55;39.88;;;4.00;99.90;;;;;;5091450;28;20044;-62
2022/01/25 11:40:22;;;;;;;92.85;40.50;;;4.00;99.90;;;;;;5090892;28;20044;-62
2022/01/25 11:42:50;;;;;;;86.85;39.25;;;4.00;99.90;;;;;;5091338;28;20054;-61
2022/01/25 11:45:20;;;;;;;87.28;41.15;;;4.00;99.90;;;;;;5090779;28;20044;-62
2022/01/25 11:47:49;;;;;;;90.07;41.35;;;4.00;99.90;;;;;;5090919;28;20094;-61
2022/01/25 11:50:15;;;;;;;89.07;41.75;;;4.00;99.90;;;;;;5089510;28;20495;-61
2022/01/25 11:52:49;;;;;;;;;;;4.00;99.90;;;;;;5090968;28;20142;-61
2022/01/25 11:55:37;;;;;;;85.82;39.08;;;4.00;99.90;;;;;;5090570;28;19920;-61
2022/01/25 11:58:36;;;;;;;;;;;4.10;99.90;;;;;;5087213;28;20374;-61
2022/01/25 12:01:05;;;;;;;89.80;40.92;;;4.10;99.90;;;;;;5077888;28;19920;-61
2022/01/25 12:03:44;;;;;;;85.43;41.00;;;4.10;99.90;;;;;;5079040;28;20056;-62
2022/01/25 12:06:17;;;;;;;85.40;40.65;;;4.10;99.90;;;;;;5079205;28;20160;-62
2022/01/25 12:09:05;;;;;;;85.20;42.00;;;4.10;99.90;;;;;;5079220;28;20037;-62
2022/01/25 12:11:58;;;;;;;86.10;40.88;;;4.10;99.90;;;;;;5080318;28;20048;-61
2022/01/25 12:14:24;;;;;;;92.25;41.38;;;4.10;99.90;;;;;;5078345;28;20102;-62
2022/01/25 12:16:57;;;;;;;84.07;41.15;;;4.30;99.90;;;;;;5079235;28;20048;-62
2022/01/25 12:19:47;;;;;;;82.80;40.88;;;4.10;99.90;;;;;;5079168;28;20535;-63
2022/01/25 12:22:19;;;;;;;90.63;41.00;;;4.10;99.90;;;;;;5078420;28;20048;-63
2022/01/25 12:24:52;;;;;;;86.65;41.97;;;4.10;99.90;;;;;;5078647;28;20404;-62
2022/01/25 12:27:27;;;;;;;88.45;42.45;;;4.10;99.90;;;;;;5078636;28;20385;-61
2022/01/25 12:30:18;;;;;;;93.78;41.53;;;4.10;99.90;;;;;;5080839;28;20128;-63
2022/01/25 12:33:02;;;;;;;86.35;40.45;;;4.20;99.90;;;;;;5067141;28;20059;-62
2022/01/25 12:35:36;;;;;;;83.40;41.17;;;4.10;99.90;;;;;;5069586;28;20527;-62
2022/01/25 12:38:10;;;;;;;90.40;43.15;;;4.10;99.90;;;;;;5069578;28;20053;-61
2022/01/25 12:40:42;;;;;;;98.10;47.42;;;4.10;99.90;;;;;;5064828;28;20068;-62
2022/01/25 12:43:07;;;;;;;89.57;44.05;;;4.10;99.90;;;;;;5066736;28;20075;-61
2022/01/25 12:45:40;;;;;;;82.43;41.65;;;4.10;99.90;;;;;;5065072;28;20049;-61
2022/01/25 12:48:22;;;;;;;81.68;41.88;;;4.30;99.90;;;;;;5064611;28;20763;-61
2022/01/25 12:50:50;;;;;;;86.75;40.38;;;4.10;99.90;;;;;;5061572;28;20045;-61
2022/01/25 12:53:20;;;;;;;81.05;39.75;;;4.10;99.90;;;;;;5071416;28;20129;-61
2022/01/25 12:55:50;;;;;;;85.63;41.08;;;4.10;99.90;;;;;;5072835;28;20144;-61
2022/01/25 12:58:18;;;;;;;87.60;40.25;;;4.20;99.90;;;;;;5064134;28;20051;-61
2022/01/25 13:00:47;;;;;;;86.38;42.95;;;4.10;99.90;;;;;;5061998;28;20488;-61
2022/01/25 13:03:33;;;;;;;91.07;44.10;;;4.10;99.90;;;;;;5061651;28;20061;-60
2022/01/25 13:06:00;;;;;;;90.25;43.22;;;4.10;99.90;;;;;;5063284;28;20045;-62
2022/01/25 13:08:53;;;;;;;85.93;41.50;;;4.10;99.90;;;;;;5065645;28;20033;-61
2022/01/25 13:11:27;;;;;;;86.05;40.78;;;4.10;99.90;;;;;;5064529;28;20040;-61
2022/01/25 13:14:18;;;;;;;88.22;41.08;;;4.10;99.90;;;;;;5064081;28;20053;-60
2022/01/25 13:16:49;;;;;;;78.50;39.70;;;4.10;99.90;;;;;;5065115;28;20049;-62
2022/01/25 13:19:20;;;;;;;84.78;40.75;;;4.10;99.90;;;;;;5063763;28;20060;-61
2022/01/25 13:21:52;;;;;;;85.28;40.22;;;4.00;99.90;;;;;;5064642;28;20037;-61
2022/01/25 13:24:20;;;;;;;82.75;40.35;;;4.10;99.90;;;;;;5064108;28;20126;-61
2022/01/25 13:27:02;;;;;;;85.07;40.33;;;4.10;99.90;;;;;;5063473;28;20056;-61
2022/01/25 13:32:27;;;;;;;90.55;40.08;;;4.20;99.90;;;;;;5065296;28;20056;-61
2022/01/25 13:35:04;;;;;;;76.82;38.20;;;4.30;99.90;;;;;;5054118;28;20476;-62
2022/01/25 13:37:31;;;;;;;77.90;38.88;;;4.10;99.90;;;;;;5055194;28;20115;-62
2022/01/25 13:40:03;;;;;;;83.63;40.10;;;4.10;99.90;;;;;;5055480;28;20110;-62
2022/01/25 13:42:45;;;;;;;86.03;39.15;;;4.10;99.90;;;;;;5059398;28;20044;-62
2022/01/25 13:48:05;;;;;;;91.53;40.67;;;4.10;99.90;;;;;;5061826;28;20045;-62
2022/01/25 13:50:33;;;;;;;80.45;38.78;;;4.10;99.90;;;;;;5053836;28;20497;-62
2022/01/25 13:53:00;;;;;;;85.93;40.08;;;4.10;99.90;;;;;;5055274;28;20041;-62
2022/01/25 13:55:26;;;;;;;93.30;39.65;;;4.10;99.90;;;;;;5053939;28;20041;-62
2022/01/25 13:57:52;;;;;;;85.05;39.42;;;4.00;99.90;;;;;;5067083;28;20070;-61
2022/01/25 14:00:20;;;;;;;86.50;39.38;;;4.10;99.90;;;;;;5074429;28;20045;-61
2022/01/25 14:02:57;;;;;;;93.80;40.38;;;4.00;99.90;;;;;;5074512;28;20127;-62
2022/01/25 14:05:22;;;;;;;84.22;41.70;;;4.00;99.90;;;;;;5074554;28;20052;-62
2022/01/25 14:07:51;;;;;;;90.30;39.92;;;4.00;99.90;;;;;;5074555;28;20128;-62
2022/01/25 14:10:22;;;;;;;83.97;39.78;;;4.10;99.90;;;;;;5074380;28;20059;-62
2022/01/25 14:23:49;;;;;;;86.35;39.33;;;4.00;99.90;;;;;;5070453;28;20094;-62
2022/01/25 14:26:16;;;;;;;81.85;39.40;;;4.00;99.90;;;;;;5072223;28;20037;-62
2022/01/25 14:28:43;;;;;;;87.30;40.40;;;4.00;99.90;;;;;;5073284;28;20051;-61
2022/01/25 14:31:18;;;;;;;88.32;39.70;;;4.00;99.90;;;;;;5074044;28;20132;-62
2022/01/25 14:33:56;;;;;;;76.78;39.05;;;4.10;99.90;;;;;;5074081;28;20087;-64
2022/01/25 14:36:24;;;;;;;81.18;38.10;;;4.00;99.90;;;;;;5074066;28;20097;-62
2022/01/25 14:38:52;;;;;;;83.88;38.67;;;4.00;99.90;;;;;;5073595;28;20485;-61
2022/01/25 14:41:27;;;;;;;84.60;39.45;;;4.00;99.90;;;;;;5073961;28;20048;-62
2022/01/25 14:43:57;;;;;;;92.35;41.20;;;4.10;99.90;;;;;;5074239;28;20573;-62
2022/01/25 14:46:26;;;;;;;82.15;38.33;;;3.90;99.90;;;;;;5073909;28;20047;-62
2022/01/25 14:49:05;;;;;;;94.50;41.47;;;4.00;99.90;;;;;;5073145;28;20057;-62
2022/01/25 14:51:37;;;;;;;83.38;39.65;;;3.90;99.90;;;;;;5073163;28;20086;-62
2022/01/25 14:54:06;;;;;;;90.60;40.58;;;3.90;99.90;;;;;;5073553;28;20102;-62
2022/01/25 14:56:38;;;;;;;91.05;42.13;;;3.90;99.90;;;;;;5073810;28;20102;-62
2022/01/25 15:01:52;;;;;;;89.45;40.50;;;3.90;99.90;;;;;;5073648;28;20067;-62
2022/01/25 15:04:18;;;;;;;94.22;41.10;;;3.90;99.90;;;;;;5073653;28;20043;-61
2022/01/25 15:06:44;;;;;;;92.60;40.00;;;3.80;99.90;;;;;;5073636;28;20040;-62
2022/01/25 15:09:10;;;;;;;97.70;41.22;;;3.70;99.90;;;;;;5074141;28;20465;-61
2022/01/25 15:11:36;;;;;;;98.35;41.17;;;3.70;99.90;;;;;;5073419;28;20075;-62
2022/01/25 15:14:16;;;;;;;98.68;41.35;;;3.70;99.90;;;;;;5073824;28;20052;-61
2022/01/25 15:16:42;;;;;;;101.50;41.67;;;3.70;99.90;;;;;;5073147;28;20056;-62
2022/01/25 15:19:08;;;;;;;98.53;39.50;;;;;;;;;;5072173;28;20060;-62
2022/01/25 15:21:34;;;;;;;99.80;39.90;;;3.60;99.90;;;;;;5073475;28;20113;-63
2022/01/25 15:23:59;;;;;;;108.75;42.40;;;3.70;99.90;;;;;;5073523;28;20044;-62
2022/01/25 15:26:28;;;;;;;96.68;42.20;;;3.80;99.90;;;;;;5074067;28;20052;-62
2022/01/25 15:28:57;;;;;;;93.03;40.83;;;3.80;99.90;;;;;;5073454;28;20048;-62
2022/01/25 15:31:24;;;;;;;100.30;41.47;;;3.70;99.90;;;;;;5073499;28;20056;-62
2022/01/25 15:33:51;;;;;;;102.25;42.75;;;3.60;99.90;;;;;;5073377;28;20130;-62
2022/01/25 15:36:19;;;;;;;99.00;43.80;;;3.70;99.90;;;;;;5073954;28;20056;-62
2022/01/25 15:38:48;;;;;;;102.28;42.03;;;3.70;99.90;;;;;;5073262;28;20074;-62
2022/01/25 15:41:14;;;;;;;109.82;43.38;;;3.70;99.90;;;;;;5061990;28;20044;-62
2022/01/25 15:46:26;;;;;;;100.80;41.47;;;3.70;99.90;;;;;;5058075;28;20481;-62
2022/01/25 15:48:54;;;;;;;102.20;41.38;;;3.60;99.90;;;;;;5053288;28;20049;-61
2022/01/25 15:51:21;;;;;;;114.40;43.72;;;3.60;99.90;;;;;;5056528;28;20044;-61
2022/01/25 15:53:47;;;;;;;106.63;42.08;;;3.70;99.90;;;;;;5067279;28;20045;-62
2022/01/25 15:56:14;;;;;;;106.43;42.50;;;3.60;99.90;;;;;;5073133;28;20378;-62
2022/01/25 15:58:41;;;;;;;107.35;41.92;;;3.70;99.90;;;;;;5057892;28;20442;-62
2022/01/25 16:01:09;;;;;;;103.88;41.97;;;3.70;99.90;;;;;;5057621;28;20049;-62
2022/01/25 16:03:36;;;;;;;103.68;43.47;;;3.70;99.90;;;;;;5062469;28;20400;-62
2022/01/25 16:06:02;;;;;;;103.57;43.38;;;3.60;99.90;;;;;;5068719;28;20099;-62
2022/01/25 16:08:28;;;;;;;101.18;41.53;;;3.60;99.90;;;;;;5066454;28;20443;-62
2022/01/25 16:10:54;;;;;;;110.13;43.75;;;3.60;99.90;;;;;;5065424;28;20105;-62
2022/01/25 16:13:20;;;;;;;103.95;42.13;;;3.70;99.90;;;;;;5066206;28;20146;-62
2022/01/25 16:15:45;;;;;;;101.20;42.92;;;3.60;99.90;;;;;;5066043;28;20048;-63
2022/01/25 16:18:11;;;;;;;104.63;41.13;;;3.70;99.90;;;;;;5065489;28;20048;-61
2022/01/25 16:20:39;;;;;;;103.90;43.65;;;3.70;99.90;;;;;;5068691;28;20053;-62
2022/01/25 16:23:06;;;;;;;109.75;41.97;;;3.60;99.90;;;;;;5066731;28;20052;-62
2022/01/25 16:25:33;;;;;;;102.03;41.20;;;3.60;99.90;;;;;;5064878;28;20050;-62
2022/01/25 16:27:58;;;;;;;104.50;43.58;;;3.70;99.90;;;;;;5067790;28;20114;-62
2022/01/25 16:30:24;;;;;;;105.07;42.25;;;3.60;99.90;;;;;;5075685;28;20052;-63
2022/01/25 16:32:51;;;;;;;101.07;41.92;;;3.80;99.90;;;;;;5076399;28;20131;-62
2022/01/25 16:35:19;;;;;;;99.88;41.03;;;3.60;99.90;;;;;;5076971;28;20114;-62
2022/01/25 16:37:45;;;;;;;97.18;41.28;;;3.60;99.90;;;;;;5075197;28;20070;-61
2022/01/25 16:40:13;;;;;;;106.50;42.90;;;3.60;99.90;;;;;;5076248;28;20041;-62
2022/01/25 16:42:39;;;;;;;108.95;41.42;;;3.50;99.90;;;;;;5076286;28;20365;-62
2022/01/25 16:45:07;;;;;;;97.68;41.97;;;3.60;99.90;;;;;;5076146;28;20067;-61
2022/01/25 16:47:34;;;;;;;106.53;40.90;;;3.50;99.90;;;;;;5076164;28;20056;-60
2022/01/25 16:50:06;;;;;;;97.82;41.20;;;3.60;99.90;;;;;;5076011;28;20087;-60
2022/01/25 16:52:32;;;;;;;104.95;41.45;;;3.70;99.90;;;;;;5075128;28;20044;-61
2022/01/25 16:54:58;;;;;;;108.60;42.33;;;3.70;99.90;;;;;;5056914;28;20544;-60
2022/01/25 16:57:24;;;;;;;105.63;43.97;;;3.60;99.90;;;;;;5055941;28;20053;-61
2022/01/25 16:59:49;;;;;;;109.63;42.75;;;3.60;99.90;;;;;;5055781;28;20514;-61
2022/01/25 17:02:17;;;;;;;110.68;42.15;;;3.60;99.90;;;;;;5055756;28;20045;-61
2022/01/25 17:04:43;;;;;;;110.50;41.97;;;3.60;99.90;;;;;;5055802;28;20542;-62
2022/01/25 17:07:09;;;;;;;106.00;42.42;;;3.60;99.90;;;;;;5055716;28;20048;-62
2022/01/25 17:09:35;;;;;;;110.22;41.55;;;3.60;99.90;;;;;;5055679;28;20045;-62
2022/01/25 17:12:01;;;;;;;108.38;42.40;;;3.60;99.90;;;;;;5057028;28;20048;-61
2022/01/25 17:14:26;;;;;;;106.07;42.75;;;3.60;99.90;;;;;;5063679;28;20037;-62
2022/01/25 17:16:52;;;;;;;107.10;41.83;;;3.50;99.90;;;;;;5075500;28;20049;-59
2022/01/25 17:19:18;;;;;;;114.80;42.85;;;3.50;99.90;;;;;;5075355;28;20052;-61
2022/01/25 17:21:45;;;;;;;105.78;41.08;;;3.50;99.90;;;;;;5075953;28;20063;-62
2022/01/25 17:24:11;;;;;;;112.20;42.20;;;3.50;99.90;;;;;;5075502;28;20056;-61
2022/01/25 17:26:37;;;;;;;107.80;42.20;;;3.60;99.90;;;;;;5075456;28;20093;-61
2022/01/25 17:29:04;;;;;;;112.18;41.38;;;3.50;99.90;;;;;;5075337;28;20044;-61
2022/01/25 17:31:30;;;;;;;103.72;40.80;;;3.50;99.90;;;;;;5075135;28;20044;-60
2022/01/25 17:33:56;;;;;;;103.97;42.95;;;3.50;99.90;;;;;;5075204;28;20127;-60
2022/01/25 17:36:22;;;;;;;110.65;42.50;;;3.50;99.90;;;;;;5075385;28;20144;-60
2022/01/25 17:38:48;;;;;;;105.32;41.55;;;3.50;99.90;;;;;;5075125;28;20553;-60
2022/01/25 17:41:16;;;;;;;104.95;41.50;;;3.50;99.90;;;;;;5063606;28;20099;-61
2022/01/25 17:43:42;;;;;;;108.85;41.95;;;3.50;99.90;;;;;;5062764;28;20076;-60
2022/01/25 17:46:08;;;;;;;106.28;42.03;;;3.50;99.90;;;;;;5064423;28;20044;-60
2022/01/25 17:48:34;;;;;;;110.50;43.30;;;3.50;99.90;;;;;;5065376;28;20094;-61
2022/01/25 17:51:00;;;;;;;110.68;41.05;;;3.50;99.90;;;;;;5057085;28;20052;-60
2022/01/25 17:53:26;;;;;;;118.50;42.83;;;3.50;99.90;;;;;;5058608;28;20075;-61
2022/01/25 17:55:52;;;;;;;110.47;42.38;;;3.50;99.90;;;;;;5056839;28;20041;-61
2022/01/25 17:58:18;;;;;;;112.18;42.65;;;3.50;99.90;;;;;;5055658;28;20359;-61
2022/01/25 18:00:45;;;;;;;;;;;3.50;99.90;;;;;;5074490;28;20053;-62
2022/01/25 18:03:11;;;;;;;122.40;42.25;;;3.40;99.90;;;;;;5074619;28;19920;-61
2022/01/25 18:05:36;;;;;;;;;;;3.50;99.90;;;;;;5075166;28;20361;-61
2022/01/25 18:08:02;;;;;;;98.85;40.38;;;3.40;99.90;;;;;;5074552;28;19922;-60
2022/01/25 18:10:28;;;;;;;114.68;41.67;;;3.40;99.90;;;;;;5073631;28;20064;-61
2022/01/25 18:12:54;;;;;;;106.90;42.47;;;3.40;99.90;;;;;;5062444;28;20044;-61
2022/01/25 18:15:20;;;;;;;105.05;41.95;;;3.40;99.90;;;;;;5063873;28;20040;-61
2022/01/25 18:17:46;;;;;;;107.60;40.67;;;3.40;99.90;;;;;;5065053;28;20048;-61
2022/01/25 18:20:12;;;;;;;107.75;40.63;;;3.40;99.90;;;;;;5062461;28;20048;-61
2022/01/25 18:25:16;;;;;;;105.40;40.33;;;3.40;99.90;;;;;;5064757;28;20040;-61
2022/01/25 18:27:42;;;;;;;111.15;41.13;;;3.40;99.90;;;;;;5063241;28;20073;-61
2022/01/25 18:30:08;;;;;;;;;;;3.40;99.90;;;;;;5065949;28;20366;-62
2022/01/25 18:32:34;;;;;;;112.82;39.38;;;3.40;99.90;;;;;;5066119;28;19930;-63
2022/01/25 18:34:59;;;;;;;105.85;37.90;;;3.40;99.90;;;;;;5065916;28;20045;-61
2022/01/25 18:37:26;;;;;;;109.57;39.75;;;3.30;99.90;;;;;;5065791;28;20044;-60
2022/01/25 18:39:52;;;;;;;108.05;38.38;;;3.40;99.90;;;;;;5062552;28;20041;-61
2022/01/25 18:42:18;;;;;;;98.05;38.22;;;3.30;99.90;;;;;;5063403;28;20076;-60
2022/01/25 18:44:44;;;;;;;93.93;37.15;;;3.40;99.90;;;;;;5064373;28;20084;-62
2022/01/25 18:47:11;;;;;;;98.13;37.17;;;3.40;99.90;;;;;;5062318;28;20047;-61
2022/01/25 18:49:38;;;;;;;89.13;36.22;;;3.50;99.90;;;;;;5063766;28;20040;-60
2022/01/25 18:52:08;;;;;;;95.53;36.03;;;3.50;99.90;;;;;;5061108;28;20519;-60
2022/01/25 18:54:34;;;;;;;100.10;37.45;;;3.50;99.90;;;;;;5062858;28;20048;-61
2022/01/25 18:57:00;;;;;;;93.88;36.40;;;3.40;99.90;;;;;;5063218;28;20503;-61
2022/01/25 18:59:26;;;;;;;94.75;37.17;;;3.40;99.90;;;;;;5057755;28;20075;-61
2022/01/25 19:01:54;;;;;;;87.22;35.28;;;3.30;99.90;;;;;;5060483;28;20036;-61
2022/01/25 19:04:20;;;;;;;97.63;36.60;;;3.40;99.90;;;;;;5067923;28;20051;-60
2022/01/25 19:06:46;;;;;;;97.50;36.40;;;3.40;99.90;;;;;;5074274;28;20044;-61
2022/01/25 19:09:42;;;;;;;89.07;35.58;;;3.30;99.90;;;;;;5069118;28;20082;-67
2022/01/25 19:12:09;;;;;;;87.25;35.00;;;3.40;99.90;;;;;;5060611;28;20098;-61
2022/01/25 19:14:34;;;;;;;;;;;3.40;99.90;;;;;;5058945;28;20103;-61
2022/01/25 19:17:01;;;;;;;95.00;35.50;;;3.40;99.90;;;;;;5064137;28;20391;-61
2022/01/25 19:19:26;;;;;;;93.57;35.33;;;3.40;99.90;;;;;;5065425;28;20084;-61
2022/01/25 19:21:52;;;;;;;96.80;35.70;;;3.40;99.90;;;;;;5065553;28;20133;-61
2022/01/25 19:24:19;;;;;;;102.05;37.90;;;3.40;99.90;;;;;;5059194;28;20366;-61
2022/01/25 19:26:46;;;;;;;98.15;37.30;;;3.40;99.90;;;;;;5056324;28;20393;-62
2022/01/25 19:29:12;;;;;;;95.47;35.65;;;3.40;99.90;;;;;;5060346;28;20517;-61
2022/01/25 19:31:38;;;;;;;98.20;37.60;;;3.30;99.90;;;;;;5053445;28;20045;-60
2022/01/25 19:34:04;;;;;;;;;;;3.40;99.90;;;;;;5063767;28;20060;-63
2022/01/25 19:36:29;;;;;;;106.78;36.20;;;3.40;99.90;;;;;;5060895;28;19928;-59
2022/01/25 19:38:59;;;;;;;100.30;39.13;;;3.40;99.90;;;;;;5070368;28;20040;-60
2022/01/25 19:41:26;;;;;;;100.70;37.03;;;3.30;99.90;;;;;;5076492;28;20454;-60
2022/01/25 19:43:52;;;;;;;91.07;34.13;;;3.30;99.90;;;;;;5077317;28;20428;-60
2022/01/25 19:46:20;;;;;;;100.82;36.80;;;3.40;99.90;;;;;;5077320;28;20040;-60
2022/01/25 19:48:48;;;;;;;93.80;36.28;;;3.40;99.90;;;;;;5062198;28;20071;-60
2022/01/25 19:51:17;;;;;;;88.35;36.00;;;3.30;99.90;;;;;;5056862;28;20525;-60
2022/01/25 19:53:43;;;;;;;98.43;36.92;;;3.30;99.90;;;;;;5056863;28;20463;-61
2022/01/25 19:56:10;;;;;;;93.40;35.63;;;3.30;99.90;;;;;;5057744;28;20049;-61
2022/01/25 19:58:38;;;;;;;105.20;37.17;;;3.30;99.90;;;;;;5057005;28;20056;-61
2022/01/25 20:01:09;;;;;;;101.13;35.50;;;3.40;99.90;;;;;;5056949;28;20049;-60
2022/01/25 20:03:37;;;;;;;95.13;36.58;;;3.30;99.90;;;;;;5056997;28;20041;-60
2022/01/25 20:06:06;;;;;;;96.10;36.80;;;3.40;99.90;;;;;;5056963;28;20048;-60
2022/01/25 20:08:34;;;;;;;95.22;37.05;;;3.30;99.90;;;;;;5057422;28;20067;-61
2022/01/25 20:11:05;;;;;;;106.60;37.75;;;3.20;99.90;;;;;;5061094;28;20048;-61
2022/01/25 20:13:32;;;;;;;105.03;38.45;;;3.30;99.90;;;;;;5072466;28;20047;-61
2022/01/25 20:16:00;;;;;;;102.57;36.70;;;3.30;99.90;;;;;;5076751;28;20044;-61
2022/01/25 20:18:31;;;;;;;104.88;39.25;;;3.30;99.90;;;;;;5076447;28;21936;-60
2022/01/25 20:21:07;;;;;;;104.30;36.80;;;3.30;99.90;;;;;;5076646;28;20048;-61
2022/01/25 20:23:38;;;;;;;101.18;37.25;;;3.30;99.90;;;;;;5076701;28;20057;-61
2022/01/25 20:26:20;;;;;;;113.00;39.50;;;3.20;99.90;;;;;;5076900;28;20056;-61
2022/01/25 20:28:56;;;;;;;100.50;36.75;;;3.30;99.90;;;;;;5076590;28;20052;-62
2022/01/25 20:31:24;;;;;;;100.28;36.20;;;3.20;99.90;;;;;;5076519;28;20059;-61
2022/01/25 20:33:51;;;;;;;110.57;37.60;;;3.30;99.90;;;;;;5076480;28;20106;-61
2022/01/25 20:36:19;;;;;;;108.68;38.10;;;3.30;99.90;;;;;;5076401;28;20140;-61
2022/01/25 20:38:47;;;;;;;101.72;37.40;;;3.30;99.90;;;;;;5076212;28;20033;-60
2022/01/25 20:41:13;;;;;;;98.43;37.10;;;3.30;99.90;;;;;;5076214;28;20063;-60
2022/01/25 20:43:39;;;;;;;99.95;36.83;;;3.30;99.90;;;;;;5073127;28;20162;-60
2022/01/25 20:46:05;;;;;;;97.13;37.22;;;3.30;99.90;;;;;;5064708;28;20041;-60
2022/01/25 20:48:32;;;;;;;97.75;36.85;;;3.30;99.90;;;;;;5063136;28;20045;-59
2022/01/25 20:51:00;;;;;;;107.70;36.55;;;3.40;99.90;;;;;;5055568;28;20048;-60
2022/01/25 20:53:26;;;;;;;112.65;37.72;;;3.30;99.90;;;;;;5055919;28;20055;-60
2022/01/25 20:55:53;;;;;;;100.07;36.85;;;3.40;99.90;;;;;;5056067;28;20106;-61
2022/01/25 20:58:20;;;;;;;101.97;36.90;;;3.30;99.90;;;;;;5055096;28;20049;-61
2022/01/25 21:00:49;;;;;;;107.72;37.63;;;3.30;99.90;;;;;;5055836;28;20052;-61
2022/01/25 21:03:22;;;;;;;99.60;36.35;;;3.30;99.90;;;;;;5055872;28;20413;-61
2022/01/25 21:08:34;;;;;;;101.93;38.15;;;3.20;99.90;;;;;;5056482;28;20053;-61
2022/01/25 21:11:00;;;;;;;111.22;38.40;;;3.20;99.90;;;;;;5054957;28;20497;-61
2022/01/25 21:13:26;;;;;;;108.25;37.95;;;3.20;99.90;;;;;;5055669;28;20091;-61
2022/01/25 21:15:52;;;;;;;108.63;37.20;;;3.10;99.90;;;;;;5055929;28;20124;-61
2022/01/25 21:18:17;;;;;;;103.28;35.80;;;3.20;99.90;;;;;;5054246;28;20041;-61
2022/01/25 21:20:46;;;;;;;101.60;35.83;;;3.20;99.90;;;;;;5056016;28;20477;-63
2022/01/25 21:23:12;;;;;;;101.68;36.47;;;3.10;99.90;;;;;;5055601;28;20045;-61
2022/01/25 21:25:37;;;;;;;;;;;3.10;99.90;;;;;;5056437;28;20052;-61
2022/01/25 21:28:07;;;;;;;110.13;39.15;;;3.10;99.90;;;;;;5055365;28;20276;-63
2022/01/25 21:30:36;;;;;;;107.43;36.63;;;3.10;99.90;;;;;;5055781;28;20128;-62
2022/01/25 21:33:02;;;;;;;105.70;37.78;;;3.10;99.90;;;;;;5055311;28;20045;-60
2022/01/25 21:35:28;;;;;;;108.13;37.42;;;3.10;99.90;;;;;;5055037;28;20520;-60
2022/01/25 21:37:56;;;;;;;116.00;39.03;;;3.10;99.90;;;;;;5055774;28;20049;-62
2022/01/25 21:40:21;;;;;;;96.45;36.17;;;3.10;99.90;;;;;;5055131;28;20052;-60
2022/01/25 21:42:47;;;;;;;111.13;37.53;;;3.00;99.90;;;;;;5073874;28;20045;-60
2022/01/25 21:45:14;;;;;;;103.57;37.60;;;3.10;99.90;;;;;;5066135;28;20041;-61
2022/01/25 21:47:39;;;;;;;113.18;38.08;;;3.10;99.90;;;;;;5060987;28;20386;-61
2022/01/25 21:50:05;;;;;;;105.72;37.33;;;3.00;99.90;;;;;;5070009;28;20043;-60
2022/01/25 21:52:31;;;;;;;106.68;37.88;;;3.00;99.90;;;;;;5057442;28;20048;-60
2022/01/25 21:54:57;;;;;;;102.90;37.80;;;3.00;99.90;;;;;;5065473;28;20060;-61
2022/01/25 21:57:22;;;;;;;106.63;36.78;;;3.10;99.90;;;;;;5072624;28;20044;-61
2022/01/25 21:59:48;;;;;;;102.35;36.53;;;3.10;99.90;;;;;;5073910;28;20041;-61
